Notice: Undefined index: station in /home3/dimtiris/public_html/webApp/metar/index.php on line 4

Metar

Weather conditions for all airports of the world. Just type the ICAO code of an airport.

LGAV 011420Z 22021KT 3000 DU FEW025 19/09 Q0998 NOSIG

STATION LGAV
OBSERVED Sun Feb 1, 07:20 MST
NOW Sun Feb 1, 07:39 MST
AGE 19 min ago
WIND SW at 24 mph
VISIBILITY 4.8 miles
CONDITIONS widespread dust
CLOUDS partly cloudy
TEMP 66°F (19°C)
DEWPT 48°F (9°C)
HUMIDITY 52%
BAROMETER 998 hPa (29.47 in Hg)

Get weather info from other station:

Some ICAO codes to try: